Time;durP1;ratioP1;P1;durP2;ratioP2;P2;SDS_P1;SDS_P2;PMS_P1;PMS_P2;Temp;Humidity;BMP_temperature;BMP_pressure;BME280_temperature;BME280_humidity;BME280_pressure;Samples;Min_cycle;Max_cycle;Signal;HPM_P1;HPM_P2
2023/05/29 00:00:05;;;;;;;0.10;0.10;;;;;;;11.97;62.68;97716.63;5031797;28;20132;-74
2023/05/29 00:02:36;;;;;;;0.10;0.10;;;;;;;11.93;62.99;97718.06;5031303;28;20037;-73
2023/05/29 00:05:06;;;;;;;0.20;0.20;;;;;;;11.88;63.02;97724.00;5026849;28;20038;-75
2023/05/29 00:07:33;;;;;;;0.20;0.20;;;;;;;11.81;63.03;97719.66;5009685;28;20048;-74
2023/05/29 00:10:01;;;;;;;0.13;0.13;;;;;;;11.85;62.41;97728.91;5011198;28;20061;-75
2023/05/29 00:12:29;;;;;;;0.10;0.10;;;;;;;11.84;62.67;97722.72;5017929;28;20060;-75
2023/05/29 00:14:58;;;;;;;0.17;0.17;;;;;;;11.90;62.32;97718.44;5025809;28;20538;-74
2023/05/29 00:17:25;;;;;;;0.20;0.20;;;;;;;11.58;63.50;97720.75;5031395;28;20037;-73
2023/05/29 00:19:53;;;;;;;0.10;0.10;;;;;;;11.52;63.30;97718.03;5031562;28;20045;-73
2023/05/29 00:22:22;;;;;;;0.10;0.10;;;;;;;11.47;64.12;97720.47;5029194;28;20045;-73
2023/05/29 00:24:49;;;;;;;0.20;0.20;;;;;;;11.50;63.90;97715.56;5030063;28;20056;-74
2023/05/29 00:27:17;;;;;;;0.10;0.10;;;;;;;11.54;63.87;97716.81;5028427;28;20125;-74
2023/05/29 00:29:45;;;;;;;0.10;0.10;;;;;;;11.50;63.63;97715.56;5030512;28;20049;-74
2023/05/29 00:32:13;;;;;;;0.20;0.20;;;;;;;11.51;63.81;97716.38;5013468;28;20056;-75
2023/05/29 00:34:40;;;;;;;0.10;0.10;;;;;;;11.53;63.54;97714.31;5012779;28;20037;-73
2023/05/29 00:37:08;;;;;;;0.10;0.10;;;;;;;11.34;64.21;97713.19;5012973;28;20083;-75
2023/05/29 00:39:37;;;;;;;0.30;0.30;;;;;;;11.26;64.38;97711.50;5011350;28;20115;-73
2023/05/29 00:42:05;;;;;;;0.17;0.17;;;;;;;11.57;64.28;97711.06;5030881;28;20481;-75
2023/05/29 00:44:33;;;;;;;0.20;0.20;;;;;;;11.51;64.22;97711.88;5012923;28;20046;-74
2023/05/29 00:47:00;;;;;;;0.35;0.35;;;;;;;11.49;64.26;97710.41;5027085;28;20068;-75
2023/05/29 00:49:28;;;;;;;0.10;0.10;;;;;;;11.48;64.10;97711.44;5031345;28;20060;-74
2023/05/29 00:51:56;;;;;;;0.20;0.20;;;;;;;11.52;64.01;97700.16;5028893;28;20504;-75
2023/05/29 00:54:27;;;;;;;0.10;0.10;;;;;;;11.70;63.53;97707.63;5026908;28;20048;-75
2023/05/29 00:56:58;;;;;;;0.20;0.20;;;;;;;11.47;63.81;97712.44;5012088;28;20055;-75
2023/05/29 00:59:27;;;;;;;0.40;0.40;;;;;;;11.26;64.11;97711.50;5030228;28;20076;-75
2023/05/29 01:01:55;;;;;;;0.20;0.20;;;;;;;11.33;64.03;97715.03;5012079;28;20038;-75
2023/05/29 01:04:25;;;;;;;0.20;0.20;;;;;;;11.17;64.64;97709.19;5012521;28;20176;-75
2023/05/29 01:06:52;;;;;;;0.00;0.00;;;;;;;11.16;64.73;97712.88;5012309;28;20485;-75
2023/05/29 01:09:20;;;;;;;0.20;0.20;;;;;;;10.96;65.18;97715.41;5030600;28;20065;-73
2023/05/29 01:11:57;;;;;;;0.15;0.15;;;;;;;10.74;65.77;97719.94;5022514;28;20045;-73
2023/05/29 01:14:30;;;;;;;0.15;0.15;;;;;;;10.83;66.06;97712.63;5012874;28;20061;-73
2023/05/29 01:17:03;;;;;;;0.20;0.20;;;;;;;10.82;65.96;97719.81;5030103;28;20049;-74
2023/05/29 01:19:58;;;;;;;0.20;0.20;;;;;;;10.75;65.90;97716.28;5030902;28;20034;-73
2023/05/29 01:22:36;;;;;;;0.03;0.03;;;;;;;10.73;66.21;97710.28;5011860;28;20073;-75
2023/05/29 01:25:14;;;;;;;0.20;0.20;;;;;;;10.69;66.14;97716.22;5029889;28;20044;-72
2023/05/29 01:27:44;;;;;;;0.10;0.10;;;;;;;10.56;66.29;97717.75;5012121;28;20499;-73
2023/05/29 01:30:12;;;;;;;0.20;0.20;;;;;;;10.42;66.97;97715.13;5012501;28;20560;-73
2023/05/29 01:32:40;;;;;;;0.20;0.20;;;;;;;10.20;67.67;97712.47;5024880;28;20075;-73
2023/05/29 01:35:09;;;;;;;0.20;0.20;;;;;;;10.37;66.88;97718.41;5029481;28;20511;-73
2023/05/29 01:37:37;;;;;;;0.25;0.25;;;;;;;10.41;66.99;97713.47;5012494;28;20046;-75
2023/05/29 01:40:05;;;;;;;0.17;0.17;;;;;;;10.57;66.11;97724.75;5030253;28;20049;-73
2023/05/29 01:42:33;;;;;;;0.10;0.10;;;;;;;10.64;66.02;97709.59;5029987;28;20037;-75
2023/05/29 01:45:03;;;;;;;0.20;0.20;;;;;;;10.66;66.16;97717.44;5029397;28;20057;-75
2023/05/29 01:47:33;;;;;;;0.20;0.20;;;;;;;10.86;65.11;97720.25;5011818;28;20046;-75
2023/05/29 01:50:03;;;;;;;0.03;0.03;;;;;;;10.81;65.23;97722.66;5025410;28;20049;-75
2023/05/29 01:52:30;;;;;;;0.17;0.17;;;;;;;10.48;66.22;97723.22;5027363;28;20051;-74
2023/05/29 01:54:58;;;;;;;0.10;0.10;;;;;;;10.45;66.54;97723.59;5028948;28;20038;-75
2023/05/29 01:57:26;;;;;;;0.20;0.20;;;;;;;10.73;65.62;97712.97;5026752;28;20034;-74
2023/05/29 01:59:54;;;;;;;0.10;0.10;;;;;;;10.57;65.81;97718.56;5030117;28;20116;-74
2023/05/29 02:02:23;;;;;;;0.13;0.13;;;;;;;10.40;66.09;97714.50;5011483;28;20045;-74
2023/05/29 02:04:52;;;;;;;0.10;0.10;;;;;;;10.33;66.04;97713.63;5029873;28;20120;-73
2023/05/29 02:07:19;;;;;;;0.20;0.20;;;;;;;10.29;66.51;97718.50;5011652;28;20059;-74
2023/05/29 02:09:47;;;;;;;0.20;0.20;;;;;;;10.32;66.33;97719.97;5033227;28;20041;-75
2023/05/29 02:12:14;;;;;;;0.20;0.20;;;;;;;10.16;66.64;97726.34;5033494;28;20051;-75
2023/05/29 02:14:42;;;;;;;0.13;0.13;;;;;;;10.05;67.36;97718.84;5015799;28;20057;-75
2023/05/29 02:17:10;;;;;;;0.20;0.20;;;;;;;9.90;67.88;97716.19;5013208;28;20042;-74
2023/05/29 02:19:39;;;;;;;0.20;0.20;;;;;;;9.85;67.77;97722.09;5033888;28;20042;-74
2023/05/29 02:22:07;;;;;;;0.20;0.20;;;;;;;9.99;67.50;97724.91;5015625;28;20061;-74
2023/05/29 02:24:35;;;;;;;0.10;0.10;;;;;;;9.91;67.51;97713.34;5013933;28;20507;-74
2023/05/29 02:27:03;;;;;;;0.10;0.10;;;;;;;10.01;67.30;97715.69;5012521;28;20041;-75
2023/05/29 02:29:30;;;;;;;0.10;0.10;;;;;;;10.00;67.14;97711.38;5032975;28;20026;-74
2023/05/29 02:31:58;;;;;;;0.20;0.20;;;;;;;9.82;67.58;97716.31;5033034;28;20128;-74
2023/05/29 02:34:26;;;;;;;0.20;0.20;;;;;;;9.97;66.88;97719.75;5033452;28;20055;-74
2023/05/29 02:36:55;;;;;;;0.20;0.20;;;;;;;9.66;68.12;97725.31;5030423;28;20071;-74
2023/05/29 02:39:24;;;;;;;0.10;0.10;;;;;;;9.42;69.10;97721.13;5015996;28;20424;-73
2023/05/29 02:41:51;;;;;;;0.20;0.20;;;;;;;9.85;67.75;97722.09;5015172;28;20045;-74
2023/05/29 02:44:20;;;;;;;0.20;0.20;;;;;;;9.75;67.95;97718.91;5079099;22;20544;-68
2023/05/29 02:46:47;;;;;;;0.10;0.10;;;;;;;9.84;67.71;97720.44;5035684;28;20060;-69
2023/05/29 02:49:18;;;;;;;0.10;0.10;;;;;;;9.78;67.90;97723.00;5024483;28;20076;-68
2023/05/29 02:51:46;;;;;;;0.10;0.10;;;;;;;9.74;67.66;97727.06;5039386;28;20037;-69
2023/05/29 02:54:15;;;;;;;0.10;0.10;;;;;;;9.66;67.82;97722.66;5036584;28;20045;-68
2023/05/29 02:56:42;;;;;;;0.10;0.10;;;;;;;9.67;68.01;97723.47;5012639;28;20084;-69
2023/05/29 02:59:11;;;;;;;0.15;0.15;;;;;;;9.79;67.47;97725.50;5015910;28;20040;-69
2023/05/29 03:01:38;;;;;;;0.10;0.10;;;;;;;9.98;67.03;97724.06;5030690;28;20475;-68
2023/05/29 03:04:07;;;;;;;0.20;0.20;;;;;;;9.78;67.47;97731.84;5030717;28;20064;-68
2023/05/29 03:06:34;;;;;;;0.20;0.20;;;;;;;9.74;67.47;97725.25;5041464;28;20470;-69
2023/05/29 03:09:02;;;;;;;0.35;0.20;;;;;;;9.83;67.33;97733.97;5020292;28;20053;-69
2023/05/29 03:11:32;;;;;;;0.10;0.10;;;;;;;9.82;67.29;97727.78;5015009;28;20041;-68
2023/05/29 03:14:00;;;;;;;0.30;0.30;;;;;;;9.94;66.72;97722.81;5022525;28;20053;-69
2023/05/29 03:16:29;;;;;;;0.30;0.30;;;;;;;9.80;67.14;97734.31;5026175;28;20140;-69
2023/05/29 03:18:57;;;;;;;0.20;0.20;;;;;;;9.61;67.81;97733.06;5014829;28;20060;-69
2023/05/29 03:21:25;;;;;;;0.20;0.20;;;;;;;9.28;69.12;97743.25;5030219;28;20069;-69
2023/05/29 03:23:53;;;;;;;0.17;0.17;;;;;;;9.28;69.31;97742.41;5033918;28;20124;-69
2023/05/29 03:26:21;;;;;;;0.10;0.10;;;;;;;9.67;68.11;97744.81;5018232;28;20486;-69
2023/05/29 03:28:51;;;;;;;0.20;0.20;;;;;;;9.61;67.99;97738.38;5016629;28;20087;-68
2023/05/29 03:31:19;;;;;;;0.15;0.15;;;;;;;9.48;68.58;97732.88;5014064;28;20124;-69
2023/05/29 03:33:47;;;;;;;0.10;0.10;;;;;;;9.46;68.76;97738.38;5020213;28;20096;-68
2023/05/29 03:36:22;;;;;;;0.20;0.20;;;;;;;9.52;68.54;97737.66;5023933;28;20074;-68
2023/05/29 03:38:49;;;;;;;0.28;0.28;;;;;;;9.50;68.71;97733.53;5032354;28;20033;-69
2023/05/29 03:41:18;;;;;;;0.30;0.30;;;;;;;9.29;69.23;97739.59;5013192;28;20045;-69
2023/05/29 03:43:46;;;;;;;0.20;0.20;;;;;;;9.20;69.75;97746.00;5020858;28;20073;-69
2023/05/29 03:46:16;;;;;;;0.28;0.28;;;;;;;9.05;70.05;97737.97;5026170;28;20049;-70
2023/05/29 03:48:44;;;;;;;0.28;0.28;;;;;;;9.21;69.56;97739.66;5008442;28;20045;-70
2023/05/29 03:51:11;;;;;;;0.20;0.20;;;;;;;9.16;70.13;97740.22;5015154;28;20133;-71
2023/05/29 03:53:39;;;;;;;0.20;0.20;;;;;;;9.12;70.12;97746.91;5017374;28;20095;-70
2023/05/29 03:56:08;;;;;;;0.20;0.20;;;;;;;9.17;69.94;97752.50;5034500;28;20045;-69
2023/05/29 03:58:36;;;;;;;0.30;0.30;;;;;;;9.14;70.50;97750.19;5038170;28;20037;-70
2023/05/29 04:01:04;;;;;;;0.10;0.10;;;;;;;9.20;70.35;97754.81;5022599;28;20111;-69
2023/05/29 04:03:34;;;;;;;0.20;0.20;;;;;;;9.30;70.04;97757.22;5023233;28;20041;-69
2023/05/29 04:06:02;;;;;;;0.10;0.10;;;;;;;9.22;70.42;97759.13;5020456;28;20504;-69
2023/05/29 04:08:30;;;;;;;0.20;0.20;;;;;;;9.25;70.58;97753.44;5036554;28;20042;-69
2023/05/29 04:10:58;;;;;;;0.10;0.10;;;;;;;9.25;70.32;97769.41;5029811;28;20037;-70
2023/05/29 04:13:25;;;;;;;0.20;0.20;;;;;;;9.17;70.64;97770.31;5034078;28;20544;-69
2023/05/29 04:15:54;;;;;;;0.20;0.20;;;;;;;9.24;69.86;97773.91;5020871;28;20053;-70
2023/05/29 04:18:22;;;;;;;0.20;0.20;;;;;;;9.20;70.06;97770.81;5023735;28;20064;-69
2023/05/29 04:20:51;;;;;;;0.20;0.20;;;;;;;9.23;70.20;97774.94;5016042;28;20076;-69
2023/05/29 04:23:20;;;;;;;0.20;0.20;;;;;;;9.18;70.40;97775.47;5017074;28;20052;-71
2023/05/29 04:25:50;;;;;;;0.20;0.20;;;;;;;9.26;69.86;97779.88;5013387;28;20041;-70
2023/05/29 04:28:23;;;;;;;0.20;0.20;;;;;;;9.12;70.07;97786.03;5020492;28;20046;-69
2023/05/29 04:30:51;;;;;;;0.20;0.20;;;;;;;9.08;70.29;97777.56;5013283;28;20044;-69
2023/05/29 04:33:23;;;;;;;0.13;0.13;;;;;;;9.16;70.03;97787.31;5024608;28;20049;-69
2023/05/29 04:35:53;;;;;;;0.20;0.20;;;;;;;9.16;70.08;97787.31;5014545;28;20091;-69
2023/05/29 04:38:24;;;;;;;0.10;0.10;;;;;;;9.18;70.31;97790.63;5015057;28;20381;-69
2023/05/29 04:40:58;;;;;;;0.20;0.20;;;;;;;9.23;70.39;97795.41;5029172;28;20041;-69
2023/05/29 04:43:26;;;;;;;0.30;0.30;;;;;;;9.26;70.54;97790.53;5026432;28;20102;-69
2023/05/29 04:46:02;;;;;;;0.20;0.20;;;;;;;9.34;70.30;97793.16;5034641;28;20060;-69
2023/05/29 04:48:33;;;;;;;0.20;0.20;;;;;;;9.41;70.03;97799.38;5020491;28;20045;-69
2023/05/29 04:51:02;;;;;;;0.10;0.10;;;;;;;9.49;69.85;97793.97;5012986;28;20430;-69
2023/05/29 04:53:30;;;;;;;0.10;0.10;;;;;;;9.54;70.17;97799.59;5024745;28;20045;-69
2023/05/29 04:55:58;;;;;;;0.13;0.13;;;;;;;9.63;69.69;97800.31;5028886;28;20045;-68
2023/05/29 04:58:26;;;;;;;0.20;0.20;;;;;;;9.76;69.00;97816.47;5032585;28;20049;-68
2023/05/29 05:00:57;;;;;;;0.20;0.20;;;;;;;9.93;68.56;97814.47;5017176;28;20049;-69
2023/05/29 05:03:27;;;;;;;0.20;0.20;;;;;;;10.00;68.13;97822.53;5008241;28;20134;-69
2023/05/29 05:05:55;;;;;;;0.20;0.20;;;;;;;10.13;67.71;97820.06;5028272;28;20081;-69
2023/05/29 05:08:24;;;;;;;0.20;0.20;;;;;;;10.25;67.26;97824.78;5014710;28;20041;-68
2023/05/29 05:10:52;;;;;;;0.10;0.10;;;;;;;10.19;67.54;97819.31;5017324;28;20045;-70
2023/05/29 05:13:20;;;;;;;0.03;0.03;;;;;;;10.17;67.81;97829.34;5024344;28;20073;-69
2023/05/29 05:15:48;;;;;;;0.20;0.20;;;;;;;10.27;67.57;97827.25;5027503;28;20073;-70
2023/05/29 05:18:15;;;;;;;0.20;0.20;;;;;;;10.26;67.88;97831.75;5014345;28;20055;-70
2023/05/29 05:20:48;;;;;;;0.20;0.20;;;;;;;10.43;67.42;97827.03;5020730;28;20038;-69
2023/05/29 05:23:16;;;;;;;0.20;0.20;;;;;;;10.54;67.13;97826.53;5022184;28;20370;-69
2023/05/29 05:25:45;;;;;;;0.20;0.20;;;;;;;10.69;66.70;97825.66;5013703;28;20627;-68
2023/05/29 05:28:13;;;;;;;0.20;0.20;;;;;;;10.77;66.72;97823.69;5006610;28;20128;-69
2023/05/29 05:30:41;;;;;;;0.10;0.10;;;;;;;10.94;65.77;97825.09;5014790;28;20140;-70
2023/05/29 05:33:09;;;;;;;0.10;0.10;;;;;;;11.07;65.25;97826.22;5021480;28;20049;-70
2023/05/29 05:35:38;;;;;;;0.15;0.15;;;;;;;11.10;64.74;97823.19;5016843;28;20041;-69
2023/05/29 05:38:06;;;;;;;0.20;0.20;;;;;;;11.25;64.47;97824.75;5016081;28;20050;-70
2023/05/29 05:40:33;;;;;;;0.20;0.20;;;;;;;11.23;63.97;97828.63;5044439;28;20136;-70
2023/05/29 05:43:12;;;;;;;0.20;0.20;;;;;;;11.40;64.09;97820.16;5023982;28;20038;-70
2023/05/29 05:45:58;;;;;;;0.10;0.10;;;;;;;11.47;63.83;97824.72;5034427;28;20538;-69
2023/05/29 05:48:26;;;;;;;0.20;0.20;;;;;;;11.53;63.79;97821.25;5018323;28;20045;-70
2023/05/29 05:50:53;;;;;;;0.13;0.13;;;;;;;11.53;63.35;97830.09;5020527;28;20045;-70
2023/05/29 05:53:22;;;;;;;0.10;0.10;;;;;;;11.50;63.87;97817.13;5020574;28;20040;-70
2023/05/29 05:55:49;;;;;;;0.10;0.10;;;;;;;11.60;63.68;97832.84;5027301;28;20595;-70
2023/05/29 05:58:18;;;;;;;0.20;0.20;;;;;;;11.72;63.15;97824.06;5022800;28;20049;-70
2023/05/29 06:00:46;;;;;;;0.10;0.10;;;;;;;11.88;62.91;97830.16;5017997;28;20043;-70
2023/05/29 06:03:14;;;;;;;0.10;0.10;;;;;;;12.07;63.22;97824.06;5009749;28;20096;-70
2023/05/29 06:05:56;;;;;;;0.13;0.13;;;;;;;12.23;62.43;97836.31;5038038;28;20053;-69
2023/05/29 06:08:24;;;;;;;0.10;0.10;;;;;;;12.28;62.11;97834.69;5025597;28;20047;-69
2023/05/29 06:10:53;;;;;;;0.10;0.10;;;;;;;12.32;62.33;97840.47;5018842;28;20069;-69
2023/05/29 06:13:22;;;;;;;0.20;0.20;;;;;;;12.47;62.22;97843.81;5022576;28;20051;-69
2023/05/29 06:15:55;;;;;;;0.20;0.20;;;;;;;12.60;62.10;97838.50;5028939;28;20084;-69
2023/05/29 06:18:23;;;;;;;0.10;0.10;;;;;;;12.68;62.31;97842.84;5025306;28;20052;-69
2023/05/29 06:20:50;;;;;;;0.20;0.20;;;;;;;12.77;62.45;97842.47;5018352;28;20042;-69
2023/05/29 06:23:18;;;;;;;0.20;0.20;;;;;;;12.96;62.22;97840.03;5014779;28;20046;-69
2023/05/29 06:25:47;;;;;;;0.20;0.20;;;;;;;13.18;62.16;97833.50;5014075;28;20520;-69
2023/05/29 06:28:15;;;;;;;0.20;0.20;;;;;;;13.34;61.68;97826.91;5038812;28;20049;-69
2023/05/29 06:30:44;;;;;;;0.20;0.20;;;;;;;13.51;61.43;97842.38;5025834;28;20483;-69
2023/05/29 06:33:13;;;;;;;0.20;0.20;;;;;;;13.59;60.93;97841.34;5011485;28;20451;-69
2023/05/29 06:35:42;;;;;;;0.20;0.20;;;;;;;13.67;61.05;97840.31;5023210;28;20103;-69
2023/05/29 06:38:10;;;;;;;0.20;0.20;;;;;;;13.81;60.79;97841.91;5015423;28;20053;-69
2023/05/29 06:40:37;;;;;;;0.10;0.10;;;;;;;13.91;60.87;97850.41;5017284;28;20571;-69
2023/05/29 06:43:05;;;;;;;0.10;0.10;;;;;;;13.96;60.43;97848.72;5025967;28;20584;-69
2023/05/29 06:45:38;;;;;;;0.13;0.13;;;;;;;14.10;60.37;97849.53;5005912;28;20046;-68
2023/05/29 06:48:07;;;;;;;0.10;0.10;;;;;;;14.22;60.19;97847.81;5020238;28;20463;-68
2023/05/29 06:50:35;;;;;;;0.10;0.10;;;;;;;14.38;59.80;97848.38;5023448;28;20072;-69
2023/05/29 06:53:17;;;;;;;0.10;0.10;;;;;;;14.52;59.68;97852.72;5023030;28;20047;-69
2023/05/29 06:55:48;;;;;;;0.10;0.10;;;;;;;14.59;59.35;97848.13;5018925;28;20057;-69
2023/05/29 06:58:16;;;;;;;0.25;0.25;;;;;;;14.64;58.63;97856.34;5013485;28;20092;-68
2023/05/29 07:00:43;;;;;;;0.10;0.10;;;;;;;14.71;58.32;97857.16;5020233;28;20110;-66
2023/05/29 07:03:36;;;;;;;0.20;0.20;;;;;;;14.90;57.05;97855.41;5015676;28;20045;-66
2023/05/29 07:06:06;;;;;;;0.13;0.13;;;;;;;15.10;56.96;97857.97;5031320;28;20489;-66
2023/05/29 07:08:34;;;;;;;0.10;0.10;;;;;;;15.24;56.05;97856.84;5015934;28;20041;-64
2023/05/29 07:11:02;;;;;;;0.10;0.10;;;;;;;15.35;55.95;97853.47;5013846;28;20468;-64
2023/05/29 07:13:30;;;;;;;0.10;0.10;;;;;;;15.51;55.56;97858.28;5016673;28;20505;-64
2023/05/29 07:15:57;;;;;;;0.15;0.15;;;;;;;15.59;54.75;97859.91;5041150;28;20140;-64
2023/05/29 07:18:32;;;;;;;0.13;0.13;;;;;;;15.70;54.82;97861.88;5011469;28;20053;-64
2023/05/29 07:21:02;;;;;;;0.20;0.20;;;;;;;15.77;54.39;97865.38;5014188;28;20128;-64
2023/05/29 07:23:31;;;;;;;0.20;0.20;;;;;;;15.89;54.31;97860.06;5020848;28;20477;-64
2023/05/29 07:25:59;;;;;;;0.10;0.10;;;;;;;16.00;53.89;97860.16;5013633;28;20060;-64
2023/05/29 07:28:29;;;;;;;0.20;0.20;;;;;;;16.00;53.99;97862.00;5022561;28;20099;-65
2023/05/29 07:30:57;;;;;;;0.20;0.20;;;;;;;16.14;54.01;97858.97;5024433;28;20067;-64
2023/05/29 07:33:25;;;;;;;0.10;0.10;;;;;;;16.29;53.73;97860.50;5026239;28;20092;-65
2023/05/29 07:35:55;;;;;;;0.10;0.10;;;;;;;16.54;53.25;97861.22;5007430;28;20053;-65
2023/05/29 07:38:26;;;;;;;0.10;0.10;;;;;;;16.75;52.75;97859.94;5017813;28;20048;-64
2023/05/29 07:40:54;;;;;;;0.10;0.10;;;;;;;16.75;52.62;97857.25;5011236;28;20605;-64
2023/05/29 07:43:32;;;;;;;0.00;0.00;;;;;;;16.91;52.90;97855.81;5023932;28;20451;-65
2023/05/29 07:46:04;;;;;;;0.10;0.10;;;;;;;17.14;52.36;97859.41;5007329;28;20514;-64
2023/05/29 07:48:32;;;;;;;0.10;0.10;;;;;;;17.45;51.96;97862.88;5015808;28;20052;-64
2023/05/29 07:51:00;;;;;;;0.10;0.10;;;;;;;17.37;51.21;97864.03;5007884;28;20140;-64
2023/05/29 07:53:32;;;;;;;0.10;0.10;;;;;;;17.65;51.50;97866.09;5017841;28;20045;-66
2023/05/29 07:56:00;;;;;;;0.10;0.10;;;;;;;17.98;50.82;97879.88;5014931;28;20083;-65
2023/05/29 07:58:28;;;;;;;0.10;0.10;;;;;;;18.20;50.36;97874.69;5018221;28;20038;-64
2023/05/29 08:00:56;;;;;;;0.20;0.20;;;;;;;18.39;49.81;97878.09;5022618;28;20072;-65
2023/05/29 08:03:24;;;;;;;0.10;0.10;;;;;;;18.52;49.00;97879.72;5031292;28;20064;-64
2023/05/29 08:06:11;;;;;;;0.10;0.10;;;;;;;18.70;47.72;97880.41;5041730;28;20207;-66
2023/05/29 08:08:41;;;;;;;0.10;0.10;;;;;;;18.74;48.04;97877.22;5022150;28;20566;-65
2023/05/29 08:11:08;;;;;;;0.10;0.10;;;;;;;18.85;47.62;97874.50;5020980;28;20048;-65
2023/05/29 08:13:36;;;;;;;0.10;0.10;;;;;;;18.75;45.44;97881.56;5025453;28;20091;-69
2023/05/29 08:16:04;;;;;;;0.10;0.10;;;;;;;19.03;45.02;97884.28;5018592;28;20044;-69
2023/05/29 08:18:32;;;;;;;0.10;0.10;;;;;;;19.02;45.00;97878.06;5016813;28;20038;-70
2023/05/29 08:21:00;;;;;;;0.10;0.10;;;;;;;19.14;45.27;97875.31;5034169;28;20100;-70
2023/05/29 08:23:28;;;;;;;0.10;0.10;;;;;;;19.19;44.46;97883.53;5032221;28;20059;-72
2023/05/29 08:25:57;;;;;;;0.10;0.10;;;;;;;19.32;44.12;97877.81;5041978;28;20049;-70
2023/05/29 08:28:26;;;;;;;0.10;0.10;;;;;;;19.36;43.96;97872.72;5036068;28;20045;-71
2023/05/29 08:30:53;;;;;;;0.10;0.10;;;;;;;19.73;43.41;97867.69;5035564;28;20123;-70
2023/05/29 08:33:21;;;;;;;0.10;0.10;;;;;;;20.09;42.37;97869.06;5035985;28;20029;-72
2023/05/29 08:35:49;;;;;;;0.10;0.10;;;;;;;20.31;40.98;97866.41;5037785;28;20056;-71
2023/05/29 08:38:17;;;;;;;0.10;0.10;;;;;;;20.63;41.41;97872.84;5039707;28;20037;-73
2023/05/29 08:40:44;;;;;;;0.10;0.10;;;;;;;20.56;40.59;97864.03;5033304;28;20060;-73
2023/05/29 08:43:16;;;;;;;0.20;0.20;;;;;;;20.77;40.15;97862.41;5040410;28;20045;-72
2023/05/29 08:45:45;;;;;;;0.10;0.10;;;;;;;20.81;40.40;97866.25;5040837;23;20050;-72
2023/05/29 08:48:13;;;;;;;0.10;0.10;;;;;;;21.03;37.98;97861.63;5008367;28;20087;-72
2023/05/29 08:50:44;;;;;;;0.10;0.10;;;;;;;21.22;39.34;97862.13;5009683;28;20042;-71
2023/05/29 08:53:12;;;;;;;0.10;0.10;;;;;;;21.44;39.72;97868.34;5005557;28;20481;-72
2023/05/29 08:55:39;;;;;;;0.10;0.10;;;;;;;21.54;39.40;97860.28;5010624;28;20492;-73
2023/05/29 08:58:07;;;;;;;0.10;0.10;;;;;;;21.63;39.27;97862.50;5010061;28;20038;-73
2023/05/29 09:00:36;;;;;;;0.10;0.10;;;;;;;21.51;35.70;97863.50;5009225;28;20042;-73
2023/05/29 09:03:04;;;;;;;0.10;0.10;;;;;;;21.46;36.74;97860.75;5011239;28;20042;-73
2023/05/29 09:05:32;;;;;;;0.10;0.10;;;;;;;21.65;36.98;97857.66;5011622;28;20038;-73
2023/05/29 09:08:00;;;;;;;0.20;0.20;;;;;;;21.91;37.29;97867.63;5010627;28;20441;-73
2023/05/29 09:10:28;;;;;;;0.10;0.10;;;;;;;21.95;37.44;97866.84;5005155;28;20041;-73
2023/05/29 09:12:55;;;;;;;0.10;0.10;;;;;;;22.04;36.96;97869.94;5010765;28;20068;-73
2023/05/29 09:15:24;;;;;;;0.20;0.20;;;;;;;22.17;36.72;97872.22;5012743;28;20517;-73
2023/05/29 09:17:54;;;;;;;0.10;0.10;;;;;;;22.10;36.63;97881.69;5015694;28;20053;-73
2023/05/29 09:20:23;;;;;;;0.10;0.10;;;;;;;22.21;37.31;97878.78;5012019;28;20046;-73
2023/05/29 09:22:56;;;;;;;0.03;0.03;;;;;;;22.30;36.69;97868.22;5002747;28;20117;-73
2023/05/29 09:25:24;;;;;;;0.00;0.00;;;;;;;22.43;36.81;97875.06;5011991;28;20061;-72
2023/05/29 09:27:54;;;;;;;0.10;0.10;;;;;;;22.58;36.84;97880.59;5030242;28;20504;-73
2023/05/29 09:30:32;;;;;;;0.10;0.10;;;;;;;22.44;37.43;97884.88;5011888;28;20058;-73
2023/05/29 09:33:02;;;;;;;0.10;0.10;;;;;;;22.65;37.25;97883.88;5014116;28;20052;-74
2023/05/29 09:35:33;;;;;;;0.00;0.00;;;;;;;22.58;37.55;97884.13;5020929;28;20041;-73
2023/05/29 09:38:01;;;;;;;0.10;0.10;;;;;;;22.78;37.42;97882.63;5015201;28;20046;-73
2023/05/29 09:40:31;;;;;;;0.10;0.10;;;;;;;22.59;37.53;97884.97;5015334;28;20408;-73
2023/05/29 09:43:04;;;;;;;0.10;0.10;;;;;;;22.68;38.03;97888.81;5008400;28;20382;-73
2023/05/29 09:45:32;;;;;;;0.00;0.00;;;;;;;22.84;37.68;97893.25;5016277;28;20165;-74
2023/05/29 09:48:00;;;;;;;0.10;0.10;;;;;;;22.93;37.05;97888.16;5015440;28;20049;-74
2023/05/29 09:50:30;;;;;;;0.10;0.10;;;;;;;22.90;37.23;97883.22;5004970;28;20056;-74
2023/05/29 09:52:58;;;;;;;0.00;0.00;;;;;;;23.08;37.10;97888.19;5008334;28;20054;-74
2023/05/29 09:55:26;;;;;;;0.05;0.05;;;;;;;22.98;36.45;97879.97;5010890;28;20045;-74
2023/05/29 09:57:54;;;;;;;0.08;0.08;;;;;;;23.25;33.93;97882.53;4997061;28;20099;-75
2023/05/29 10:00:23;;;;;;;0.10;0.10;;;;;;;23.14;36.27;97878.97;5010269;28;20507;-74
2023/05/29 10:02:50;;;;;;;0.00;0.00;;;;;;;22.98;33.07;97877.25;5013141;28;20456;-74
2023/05/29 10:05:18;;;;;;;0.10;0.10;;;;;;;22.92;32.95;97867.44;5013889;28;20042;-74
2023/05/29 10:07:52;;;;;;;0.10;0.10;;;;;;;23.32;31.82;97883.06;5019065;28;20049;-75
2023/05/29 10:10:21;;;;;;;0.00;0.00;;;;;;;23.20;31.13;97886.03;5014918;28;20049;-74
2023/05/29 10:12:50;;;;;;;0.10;0.10;;;;;;;23.22;31.98;97883.88;5011945;28;20046;-74
2023/05/29 10:15:20;;;;;;;0.00;0.00;;;;;;;23.65;32.48;97881.78;4996573;28;20073;-74
2023/05/29 10:17:51;;;;;;;0.00;0.00;;;;;;;23.98;30.18;97885.91;5010226;28;20056;-74
2023/05/29 10:20:21;;;;;;;0.00;0.00;;;;;;;23.95;31.60;97879.06;5010663;28;20041;-74
2023/05/29 10:22:51;;;;;;;0.05;0.05;;;;;;;23.87;29.79;97871.44;5010897;28;20072;-74
2023/05/29 10:25:21;;;;;;;0.00;0.00;;;;;;;24.15;29.05;97881.78;5014720;28;20446;-73
2023/05/29 10:27:49;;;;;;;0.00;0.00;;;;;;;24.24;28.14;97870.34;5011823;28;20121;-73
2023/05/29 10:30:25;;;;;;;0.08;0.00;;;;;;;24.22;28.39;97878.78;4997477;28;20077;-75
2023/05/29 10:33:10;;;;;;;0.20;0.20;;;;;;;24.23;28.33;97880.44;5011371;28;20408;-74
2023/05/29 10:35:44;;;;;;;0.00;0.00;;;;;;;24.31;27.68;97876.31;5014385;28;20046;-74
2023/05/29 10:38:16;;;;;;;0.03;0.03;;;;;;;24.36;27.32;97876.31;5012595;28;20054;-74
2023/05/29 10:40:44;;;;;;;0.00;0.00;;;;;;;24.23;28.66;97877.69;5011425;28;20049;-74
2023/05/29 10:43:31;;;;;;;0.10;0.10;;;;;;;24.10;29.24;97878.22;5012612;28;20048;-74
2023/05/29 10:45:58;;;;;;;0.00;0.00;;;;;;;24.09;29.50;97880.13;5011612;28;20046;-74
2023/05/29 10:48:40;;;;;;;0.10;0.10;;;;;;;24.24;29.03;97882.06;5013493;28;20046;-74
2023/05/29 10:51:08;;;;;;;0.00;0.00;;;;;;;24.32;29.22;97883.41;5012401;28;20052;-74
2023/05/29 10:53:40;;;;;;;0.00;0.00;;;;;;;24.23;29.78;97883.16;5015051;28;20121;-74
2023/05/29 10:56:16;;;;;;;0.05;0.05;;;;;;;24.38;29.38;97893.25;5013154;28;20045;-74
2023/05/29 10:58:44;;;;;;;0.00;0.00;;;;;;;24.53;28.39;97890.47;4995476;28;20058;-74
2023/05/29 11:01:13;;;;;;;0.10;0.10;;;;;;;24.65;29.18;97882.78;5009255;28;20049;-74
2023/05/29 11:03:41;;;;;;;0.10;0.10;;;;;;;24.63;29.33;97884.16;5016441;28;20507;-74
2023/05/29 11:06:19;;;;;;;0.00;0.00;;;;;;;24.73;28.83;97881.38;5022226;28;20057;-74
2023/05/29 11:08:48;;;;;;;0.03;0.03;;;;;;;24.74;29.31;97874.81;5014303;28;20048;-74
2023/05/29 11:11:30;;;;;;;0.08;0.08;;;;;;;24.76;29.28;97869.91;5012211;28;20116;-74
2023/05/29 11:14:02;;;;;;;0.10;0.10;;;;;;;24.80;28.18;97866.34;5013540;28;20048;-74
2023/05/29 11:16:38;;;;;;;0.00;0.00;;;;;;;24.78;28.21;97874.00;5011649;28;20125;-74
2023/05/29 11:19:06;;;;;;;0.10;0.10;;;;;;;24.86;28.65;97867.13;5010609;28;20382;-74
2023/05/29 11:21:38;;;;;;;0.00;0.00;;;;;;;24.88;28.67;97873.97;5008310;28;20099;-74
2023/05/29 11:24:07;;;;;;;0.10;0.10;;;;;;;24.94;28.63;97863.84;5012239;28;20060;-74
2023/05/29 11:26:38;;;;;;;0.00;0.00;;;;;;;25.08;27.61;97862.16;5012863;28;20044;-73
2023/05/29 11:29:06;;;;;;;0.00;0.00;;;;;;;25.17;27.99;97860.44;5011545;28;20060;-74
2023/05/29 11:31:36;;;;;;;0.00;0.00;;;;;;;25.12;28.60;97862.41;5014468;28;20042;-74
2023/05/29 11:34:05;;;;;;;0.00;0.00;;;;;;;25.11;28.00;97867.06;5011550;28;20486;-74
2023/05/29 11:36:34;;;;;;;0.08;0.08;;;;;;;25.12;28.52;97871.44;5016374;28;20047;-74
2023/05/29 11:39:03;;;;;;;0.00;0.00;;;;;;;25.27;27.96;97866.94;5013440;28;20165;-74
2023/05/29 11:41:32;;;;;;;0.00;0.00;;;;;;;25.31;29.02;97866.13;5013120;28;20115;-74
2023/05/29 11:44:01;;;;;;;0.10;0.10;;;;;;;25.33;29.10;97863.09;5016984;28;20034;-74